Terminal Aerodrome Forecast
Issued by NWS

Home | Current Version | Previous Version | Text Only | Print | Product List | Glossary On
Versions: 1 2 3 4 5 6 7 8 9 10 11 12 13 14 15 16 17 18 19 20 21 22 23 24 25 26 27
052
FTUS43 KDLH 300719 AAA
TAFBRD
TAF AMD
KBRD 300719Z 3007/0106 00000KT 5SM BR OVC004
      TEMPO 3007/3009 2SM -DZ BR OVC004
     FM300900 00000KT 3SM -SN BR OVC004
     FM301300 01004KT 2SM -SN BR OVC005
     FM301800 36005KT 2SM -RASN BR OVC004=

USA.gov is the U.S. government's official web portal to all federal, state and local government web resources and services.